Rib Lake, Wisconsin
Current Conditions -  °F | °C
As of 12:55 PM on Thursday 23 Oct 2014 (Local Time) from KMDZ Reporting Station
Moderate Rain Moderate Rain  
Wind Chill: 40°   Ceiling: 400
Heat Index: 44°   Visibility: 3mi
Dew Point: 43°   Wind: 6mph
Humidity: 97%   Direction: 170°S
Pressure: 30.03"   Gusts: NA
Location:  45.32°N, 90.21°W
Report Text: KMDZ 231755Z AUTO 17005KT 3SM RA OVC004 07/06 A3003 RMK AO2 P0001 60014 T00650060 10065 20048
Loading
Personal Weather Stations






























Interactive Weather Map
Tropical Storm Tracking
New forecast layout! Learn more

10-Day Weather Forecast

Advertisements
Track Severe Weather on mobile